Time;durP1;ratioP1;P1;durP2;ratioP2;P2;SDS_P1;SDS_P2;PMS_P1;PMS_P2;Temp;Humidity;BMP_temperature;BMP_pressure;BME280_temperature;BME280_humidity;BME280_pressure;Samples;Min_cycle;Max_cycle;Signal;HPM_P1;HPM_P2
2022/02/17 00:00:12;;;;;;;0.05;0.00;;;;;;;11.58;74.09;95383.94;4995947;28;20053;-77
2022/02/17 00:02:41;;;;;;;0.00;0.00;;;;;;;11.60;73.98;95380.09;4995832;28;20096;-77
2022/02/17 00:05:09;;;;;;;0.03;0.00;;;;;;;11.64;73.74;95399.53;4995742;28;20050;-78
2022/02/17 00:07:39;;;;;;;0.10;0.10;;;;;;;11.67;73.81;95398.28;4995581;28;20054;-77
2022/02/17 00:10:08;;;;;;;0.08;0.00;;;;;;;11.68;73.95;95392.88;4995558;28;20058;-78
2022/02/17 00:12:36;;;;;;;0.00;0.00;;;;;;;11.71;73.82;95357.66;4995320;28;20054;-77
2022/02/17 00:15:04;;;;;;;0.00;0.00;;;;;;;11.73;73.70;95398.22;4995439;28;20061;-78
2022/02/17 00:17:32;;;;;;;6.22;0.10;;;;;;;11.76;73.56;95396.97;4995552;28;20058;-78
2022/02/17 00:20:00;;;;;;;0.00;0.00;;;;;;;11.77;73.45;95387.34;4995529;28;20046;-78
2022/02/17 00:22:27;;;;;;;0.00;0.00;;;;;;;11.77;73.54;95398.59;4996839;28;20057;-78
2022/02/17 00:24:56;;;;;;;0.20;0.00;;;;;;;11.78;73.40;95387.13;4995066;28;20508;-78
2022/02/17 00:27:23;;;;;;;0.00;0.00;;;;;;;11.78;73.32;95391.53;4995078;28;20475;-78
2022/02/17 00:29:51;;;;;;;0.55;0.05;;;;;;;11.77;73.33;95369.84;4995357;28;20050;-78
2022/02/17 00:32:18;;;;;;;0.00;0.00;;;;;;;11.78;73.22;95358.38;4995295;28;20061;-78
2022/02/17 00:34:46;;;;;;;0.10;0.10;;;;;;;11.79;73.23;95354.75;4995164;28;20049;-77
2022/02/17 00:37:13;;;;;;;0.08;0.00;;;;;;;11.78;73.09;95347.94;4994955;28;20058;-78
2022/02/17 00:39:41;;;;;;;0.00;0.00;;;;;;;11.80;72.91;95342.50;4994814;28;20531;-77
2022/02/17 00:42:10;;;;;;;0.95;0.17;;;;;;;11.80;72.72;95345.91;4995159;28;20093;-78
2022/02/17 00:44:37;;;;;;;0.20;0.10;;;;;;;11.81;72.33;95326.59;4995499;28;20050;-77
2022/02/17 00:47:06;;;;;;;0.80;0.00;;;;;;;11.80;72.39;95314.53;4995736;28;20497;-78
2022/02/17 00:49:34;;;;;;;0.00;0.00;;;;;;;11.82;72.18;95316.94;4994860;28;20050;-77
2022/02/17 00:52:01;;;;;;;0.10;0.00;;;;;;;11.82;71.96;95302.06;4994775;28;20061;-78
2022/02/17 00:54:29;;;;;;;0.17;0.00;;;;;;;11.83;71.87;95311.50;4995225;28;20069;-78
2022/02/17 00:56:56;;;;;;;0.00;0.00;;;;;;;11.84;71.54;95320.94;4994550;28;20054;-78
2022/02/17 00:59:26;;;;;;;0.73;0.00;;;;;;;11.85;71.23;95312.09;4994866;28;20050;-78
2022/02/17 01:01:54;;;;;;;0.00;0.00;;;;;;;11.86;70.96;95310.25;4994630;28;20061;-78
2022/02/17 01:04:21;;;;;;;0.00;0.00;;;;;;;11.90;70.95;95327.13;4996116;28;20050;-78
2022/02/17 01:06:49;;;;;;;0.00;0.00;;;;;;;11.92;70.58;95304.97;4994102;28;20058;-78
2022/02/17 01:09:17;;;;;;;0.68;0.00;;;;;;;11.93;70.55;95309.16;4994546;28;20192;-77
2022/02/17 01:11:45;;;;;;;0.00;0.00;;;;;;;11.94;70.51;95299.53;4994502;28;20046;-78
2022/02/17 01:14:12;;;;;;;0.00;0.00;;;;;;;11.94;70.34;95305.56;4995326;28;20057;-78
2022/02/17 01:16:42;;;;;;;0.00;0.00;;;;;;;11.94;70.32;95305.56;4994308;28;20467;-78
2022/02/17 01:19:09;;;;;;;1.30;0.00;;;;;;;11.97;70.52;95287.84;4994218;28;20047;-78
2022/02/17 01:21:37;;;;;;;0.00;0.00;;;;;;;11.95;70.54;95314.97;4994278;28;20432;-78
2022/02/17 01:24:05;;;;;;;2.08;0.10;;;;;;;11.96;70.76;95302.72;4993981;28;20054;-78
2022/02/17 01:26:33;;;;;;;0.00;0.00;;;;;;;11.97;70.90;95303.53;4993794;28;20508;-78
2022/02/17 01:29:00;;;;;;;0.20;0.00;;;;;;;11.97;71.19;95314.75;4994481;28;20507;-78
2022/02/17 01:31:28;;;;;;;0.50;0.00;;;;;;;11.95;71.03;95322.81;4994150;28;20054;-78
2022/02/17 01:33:57;;;;;;;0.10;0.00;;;;;;;11.97;71.04;95327.03;4994010;28;20050;-78
2022/02/17 01:36:25;;;;;;;0.00;0.00;;;;;;;11.99;71.02;95327.63;4994347;28;20061;-78
2022/02/17 01:38:52;;;;;;;0.10;0.00;;;;;;;11.99;70.98;95322.38;4994476;28;20077;-78
2022/02/17 01:41:20;;;;;;;0.00;0.00;;;;;;;11.98;70.71;95326.00;4993846;28;20050;-78
2022/02/17 01:43:48;;;;;;;0.00;0.00;;;;;;;11.98;70.64;95326.00;4993540;28;20065;-78
2022/02/17 01:46:17;;;;;;;0.30;0.00;;;;;;;11.97;70.67;95317.38;4993358;28;20512;-78
2022/02/17 01:48:44;;;;;;;0.00;0.00;;;;;;;11.97;70.58;95298.28;4993636;28;20054;-78
2022/02/17 01:51:13;;;;;;;0.30;0.00;;;;;;;11.95;70.52;95306.34;4992823;28;20058;-78
2022/02/17 01:53:40;;;;;;;0.22;0.10;;;;;;;11.94;70.27;95310.00;4993761;28;20413;-78
2022/02/17 01:56:08;;;;;;;0.65;0.20;;;;;;;11.94;70.33;95308.16;4993142;28;20046;-78
2022/02/17 01:58:35;;;;;;;3.92;0.90;;;;;;;11.95;70.33;95307.13;4993414;28;20061;-78
2022/02/17 02:01:03;;;;;;;0.20;0.20;;;;;;;11.94;70.09;95297.72;4993448;28;20432;-77
2022/02/17 02:03:30;;;;;;;0.85;0.00;;;;;;;11.95;70.03;95309.75;4993513;28;20081;-78
2022/02/17 02:05:58;;;;;;;0.60;0.03;;;;;;;11.94;69.90;95296.94;4993411;28;20065;-78
2022/02/17 02:08:27;;;;;;;0.70;0.00;;;;;;;11.97;69.77;95295.69;4993713;28;20054;-78
2022/02/17 02:10:54;;;;;;;0.00;0.00;;;;;;;11.95;69.81;95274.97;4993538;28;20420;-78
2022/02/17 02:13:22;;;;;;;0.10;0.00;;;;;;;11.95;69.82;95260.09;4993245;28;20449;-78
2022/02/17 02:15:51;;;;;;;0.00;0.00;;;;;;;11.95;69.83;95256.69;4993513;28;20489;-78
2022/02/17 02:18:20;;;;;;;0.75;0.00;;;;;;;11.93;69.67;95277.03;4992977;28;20050;-78
2022/02/17 02:20:50;;;;;;;0.03;0.03;;;;;;;11.92;69.74;95271.00;4993572;28;20054;-78
2022/02/17 02:23:18;;;;;;;0.00;0.00;;;;;;;11.91;69.59;95258.94;4992813;28;20130;-78
2022/02/17 02:25:48;;;;;;;1.02;0.00;;;;;;;11.90;69.58;95259.97;4993054;28;20042;-78
2022/02/17 02:28:22;;;;;;;0.00;0.00;;;;;;;11.91;69.69;95242.47;4993007;28;20054;-77
2022/02/17 02:30:50;;;;;;;1.00;0.10;;;;;;;11.90;69.51;95231.22;4993068;28;20057;-77
2022/02/17 02:33:18;;;;;;;4.85;0.73;;;;;;;11.90;69.63;95275.66;4993368;28;20058;-77
2022/02/17 02:35:46;;;;;;;0.00;0.00;;;;;;;11.89;69.66;95247.91;4992757;28;20483;-78
2022/02/17 02:38:15;;;;;;;0.28;0.00;;;;;;;11.92;69.65;95249.31;4993052;28;20049;-78
2022/02/17 02:40:43;;;;;;;0.15;0.00;;;;;;;11.92;69.50;95225.78;4992808;28;20421;-78
2022/02/17 02:43:11;;;;;;;0.10;0.00;;;;;;;11.92;69.57;95250.09;4992974;28;20046;-78
2022/02/17 02:45:39;;;;;;;0.00;0.00;;;;;;;11.93;69.38;95238.63;4993348;28;20187;-78
2022/02/17 02:48:08;;;;;;;0.05;0.00;;;;;;;11.94;69.57;95258.53;4992639;28;20054;-77
2022/02/17 02:50:37;;;;;;;0.00;0.00;;;;;;;11.95;69.25;95248.84;4993172;28;20331;-77
2022/02/17 02:53:05;;;;;;;0.10;0.00;;;;;;;11.95;69.52;95243.63;4993069;28;20057;-78
2022/02/17 02:55:34;;;;;;;0.00;0.00;;;;;;;11.94;69.49;95248.06;4992669;28;20055;-78
2022/02/17 02:58:01;;;;;;;0.10;0.00;;;;;;;11.97;69.35;95257.28;4992616;28;20420;-78
2022/02/17 03:00:29;;;;;;;0.22;0.00;;;;;;;11.97;69.26;95225.91;4993098;28;20050;-78
2022/02/17 03:02:56;;;;;;;0.00;0.00;;;;;;;11.99;69.38;95223.09;4995662;28;20050;-78
2022/02/17 03:05:24;;;;;;;0.00;0.00;;;;;;;11.99;69.26;95229.09;4996730;28;20050;-78
2022/02/17 03:07:54;;;;;;;0.13;0.00;;;;;;;12.00;69.23;95232.50;4996508;28;20046;-78
2022/02/17 03:10:22;;;;;;;0.00;0.00;;;;;;;12.00;69.40;95227.28;4996583;28;20054;-78
2022/02/17 03:12:51;;;;;;;1.27;0.43;;;;;;;11.99;69.37;95218.66;4996696;28;20061;-77
2022/02/17 03:15:20;;;;;;;1.67;0.00;;;;;;;11.98;69.52;95216.25;4996537;28;20066;-78
2022/02/17 03:17:48;;;;;;;0.08;0.00;;;;;;;11.98;69.69;95222.25;4996545;28;20551;-78
2022/02/17 03:20:15;;;;;;;0.55;0.10;;;;;;;11.98;69.61;95211.03;4996501;28;20563;-78
2022/02/17 03:22:43;;;;;;;0.00;0.00;;;;;;;11.98;69.69;95221.47;4995981;28;20424;-78
2022/02/17 03:25:12;;;;;;;0.10;0.10;;;;;;;11.99;69.68;95223.09;4996598;28;20062;-78
2022/02/17 03:27:39;;;;;;;0.00;0.00;;;;;;;11.98;69.65;95209.19;4996021;28;20060;-78
2022/02/17 03:30:11;;;;;;;0.03;0.03;;;;;;;11.98;69.87;95211.81;4996540;28;20047;-78
2022/02/17 03:32:39;;;;;;;0.00;0.00;;;;;;;11.97;69.70;95219.91;4996220;28;20057;-78
2022/02/17 03:35:08;;;;;;;0.00;0.00;;;;;;;11.95;69.75;95218.28;4996110;28;20054;-78
2022/02/17 03:37:36;;;;;;;0.30;0.00;;;;;;;11.97;69.87;95219.91;4995940;28;20420;-78
2022/02/17 03:40:04;;;;;;;0.00;0.00;;;;;;;11.95;69.94;95231.34;4996516;28;20054;-78
2022/02/17 03:42:32;;;;;;;0.05;0.05;;;;;;;11.97;69.99;95243.41;4996804;28;20049;-78
2022/02/17 03:45:00;;;;;;;0.10;0.10;;;;;;;11.97;69.93;95225.13;4996305;28;20054;-77
2022/02/17 03:47:28;;;;;;;0.38;0.00;;;;;;;11.96;69.77;95221.72;4995656;28;20046;-77
2022/02/17 03:49:56;;;;;;;0.00;0.00;;;;;;;11.98;70.16;95242.38;4995898;28;20069;-78
2022/02/17 03:52:23;;;;;;;0.00;0.00;;;;;;;11.99;69.92;95226.47;4995948;28;20472;-78
2022/02/17 03:54:51;;;;;;;0.00;0.00;;;;;;;12.01;69.82;95202.75;4995825;28;20508;-78
2022/02/17 03:57:18;;;;;;;0.00;0.00;;;;;;;12.01;69.79;95232.28;4995584;28;20050;-78
2022/02/17 03:59:46;;;;;;;0.00;0.00;;;;;;;12.01;70.22;95244.56;4995930;28;20054;-78
2022/02/17 04:02:13;;;;;;;0.00;0.00;;;;;;;12.01;70.21;95215.81;4995852;28;20054;-78
2022/02/17 04:04:42;;;;;;;0.17;0.00;;;;;;;12.01;69.95;95231.50;5001999;28;20046;-79
2022/02/17 04:07:10;;;;;;;0.00;0.00;;;;;;;12.00;69.93;95216.81;5002572;28;20053;-78
2022/02/17 04:09:37;;;;;;;0.00;0.00;;;;;;;12.00;70.37;95225.44;5002161;28;20050;-78
2022/02/17 04:12:06;;;;;;;0.00;0.00;;;;;;;12.00;70.22;95235.13;5001301;28;20057;-78
2022/02/17 04:14:34;;;;;;;0.00;0.00;;;;;;;12.00;70.25;95250.78;5000920;28;20046;-78
2022/02/17 04:17:02;;;;;;;0.03;0.00;;;;;;;11.99;70.30;95225.69;4996032;28;20050;-78
2022/02/17 04:19:30;;;;;;;0.65;0.10;;;;;;;11.99;70.40;95225.69;4995635;28;20053;-77
2022/02/17 04:21:59;;;;;;;1.02;0.35;;;;;;;11.98;70.55;95231.94;4995991;28;20134;-78
2022/02/17 04:24:27;;;;;;;0.00;0.00;;;;;;;11.98;70.56;95229.31;5017442;22;20531;-76
2022/02/17 04:26:54;;;;;;;0.40;0.00;;;;;;;11.98;70.66;95247.59;5000043;28;20068;-76
2022/02/17 04:29:22;;;;;;;0.55;0.00;;;;;;;11.97;70.85;95241.59;4999860;28;20053;-76
2022/02/17 04:31:49;;;;;;;0.00;0.00;;;;;;;11.97;70.87;95246.81;4997211;28;20058;-77
2022/02/17 04:34:17;;;;;;;0.20;0.08;;;;;;;11.97;70.79;95231.13;4990109;28;20061;-77
2022/02/17 04:36:50;;;;;;;0.25;0.00;;;;;;;11.97;70.71;95238.19;4995301;28;20046;-76
2022/02/17 04:39:19;;;;;;;0.00;0.00;;;;;;;11.98;70.55;95234.53;4997076;28;20057;-76
2022/02/17 04:44:31;;;;;;;0.00;0.00;;;;;;;11.97;71.07;95209.44;4998950;28;20519;-76
2022/02/17 04:46:59;;;;;;;0.47;0.00;;;;;;;11.95;71.16;95175.69;5015828;28;20048;-78
2022/02/17 04:49:26;;;;;;;2.10;0.60;;;;;;;11.93;70.87;95225.56;5003778;28;20527;-79
2022/02/17 04:51:54;;;;;;;1.65;0.00;;;;;;;11.94;70.83;95221.94;4989408;28;20096;-79
2022/02/17 04:54:23;;;;;;;0.10;0.10;;;;;;;11.95;70.74;95238.41;4979211;28;20054;-76
2022/02/17 04:56:50;;;;;;;0.35;0.00;;;;;;;11.97;70.84;95230.34;4978648;28;20050;-77
2022/02/17 04:59:18;;;;;;;0.00;0.00;;;;;;;11.95;70.86;95239.19;4980379;28;20058;-78
2022/02/17 05:01:45;;;;;;;0.35;0.10;;;;;;;11.94;70.95;95232.38;4980396;28;20062;-78
2022/02/17 05:04:21;;;;;;;0.00;0.00;;;;;;;11.92;71.23;95252.72;4979119;28;20134;-77
2022/02/17 05:06:48;;;;;;;0.00;0.00;;;;;;;11.91;71.68;95229.41;4978677;28;20531;-77
2022/02/17 05:09:16;;;;;;;0.30;0.00;;;;;;;11.92;72.08;95231.81;4979600;28;20058;-80
2022/02/17 05:11:45;;;;;;;0.00;0.00;;;;;;;11.91;72.40;95248.50;4979242;28;20113;-78
2022/02/17 05:14:12;;;;;;;0.00;0.00;;;;;;;11.90;72.27;95246.91;4979151;28;20055;-78
2022/02/17 05:16:40;;;;;;;0.43;0.10;;;;;;;11.88;72.44;95256.78;4978903;28;20057;-78
2022/02/17 05:19:07;;;;;;;0.00;0.00;;;;;;;11.86;72.63;95278.91;4979542;28;20117;-78
2022/02/17 05:21:35;;;;;;;0.05;0.00;;;;;;;11.85;72.50;95259.00;4980079;28;20055;-79
2022/02/17 05:24:02;;;;;;;0.00;0.00;;;;;;;11.84;72.37;95262.66;4979798;28;20051;-78
2022/02/17 05:26:30;;;;;;;0.00;0.00;;;;;;;11.81;72.67;95276.97;4980334;28;20054;-79
2022/02/17 05:28:58;;;;;;;0.60;0.00;;;;;;;11.80;72.94;95288.41;4980789;28;20547;-79
2022/02/17 05:31:29;;;;;;;0.10;0.10;;;;;;;11.80;73.01;95267.50;4982758;28;20054;-79
2022/02/17 05:33:59;;;;;;;0.32;0.20;;;;;;;11.79;73.23;95307.75;4980167;28;20110;-77
2022/02/17 05:36:27;;;;;;;0.63;0.32;;;;;;;11.77;73.09;95277.63;4979659;28;20058;-76
2022/02/17 05:38:54;;;;;;;0.10;0.10;;;;;;;11.75;73.33;95281.25;4980693;28;20062;-79
2022/02/17 05:41:22;;;;;;;0.45;0.10;;;;;;;11.74;73.38;95300.56;4980459;28;20061;-79
2022/02/17 05:43:49;;;;;;;0.17;0.00;;;;;;;11.73;73.52;95292.94;4980183;28;20057;-78
2022/02/17 05:46:18;;;;;;;0.63;0.00;;;;;;;11.71;73.84;95315.88;4979180;28;20079;-79
2022/02/17 05:48:45;;;;;;;0.00;0.00;;;;;;;11.71;73.75;95302.81;4978612;28;20049;-79
2022/02/17 05:51:13;;;;;;;2.08;0.20;;;;;;;11.69;74.19;95292.56;4978748;28;20058;-77
2022/02/17 05:53:40;;;;;;;29.08;17.88;;;;;;;11.69;74.35;95291.78;4980000;28;20701;-77
2022/02/17 05:56:09;;;;;;;5.40;3.22;;;;;;;11.66;74.47;95292.22;4986317;28;20420;-80
2022/02/17 05:58:36;;;;;;;1.40;0.30;;;;;;;11.64;74.75;95308.13;4986531;28;20421;-78
2022/02/17 06:01:05;;;;;;;0.52;0.10;;;;;;;11.60;74.90;95303.56;4993649;28;20051;-77
2022/02/17 06:03:34;;;;;;;0.15;0.00;;;;;;;11.55;74.93;95322.50;4999047;28;20112;-78
2022/02/17 06:06:01;;;;;;;0.10;0.10;;;;;;;11.53;75.18;95388.00;4980633;28;20055;-78
2022/02/17 06:08:29;;;;;;;0.75;0.10;;;;;;;11.49;75.75;95407.72;4979975;28;20047;-78
2022/02/17 06:10:57;;;;;;;0.55;0.15;;;;;;;11.43;75.76;95426.84;4979850;28;20054;-79
2022/02/17 06:13:24;;;;;;;1.48;0.50;;;;;;;11.35;75.14;95414.09;4992842;28;20062;-78
2022/02/17 06:15:53;;;;;;;1.30;0.30;;;;;;;11.26;75.12;95421.41;5002501;28;20046;-80
2022/02/17 06:18:20;;;;;;;3.40;0.40;;;;;;;11.20;75.09;95434.53;4983425;28;20054;-77
2022/02/17 06:21:03;;;;;;;2.97;0.75;;;;;;;11.13;75.23;95486.78;4994085;28;20050;-90
2022/02/17 06:23:37;;;;;;;2.67;0.60;;;;;;;11.04;74.99;95473.19;5003930;28;20054;-82
2022/02/17 06:26:06;;;;;;;3.22;0.65;;;;;;;10.95;74.38;95471.81;5010903;28;20044;-87
2022/02/17 06:31:40;;;;;;;7.65;0.80;;;;;;;10.82;74.24;95466.69;5013777;28;20050;-86
2022/02/17 06:34:11;;;;;;;2.92;1.00;;;;;;;10.80;73.92;95463.50;5007938;28;20077;-86
2022/02/17 06:37:23;;;;;;;2.30;0.65;;;;;;;10.77;73.66;95474.38;4989058;28;20061;-87
2022/02/17 06:46:22;;;;;;;4.05;0.80;;;;;;;10.67;73.77;95480.03;5038205;28;20036;-89
2022/02/17 06:48:52;;;;;;;4.40;1.13;;;;;;;10.66;73.80;95484.44;5036767;28;20034;-83
2022/02/17 06:54:31;;;;;;;7.22;1.33;;;;;;;10.65;73.27;95510.75;5255922;23;20033;-89
2022/02/17 06:59:56;;;;;;;3.92;0.90;;;;;;;10.64;73.12;95527.41;5016734;28;20057;-89
2022/02/17 07:02:41;;;;;;;5.10;1.05;;;;;;;10.62;72.90;95527.59;5079287;22;20102;-89
2022/02/17 07:21:38;;;;;;;3.97;1.10;;;;;;;10.54;71.74;95540.06;5321857;22;19909;-90
2022/02/17 07:24:45;;;;;;;5.47;1.02;;;;;;;10.54;71.52;95546.09;5037504;28;20029;-84
2022/02/17 07:27:20;;;;;;;7.55;1.40;;;;;;;10.53;71.24;95552.31;5037809;28;20038;-90
2022/02/17 07:30:07;;;;;;;6.05;1.73;;;;;;;10.53;71.08;95570.56;5023132;28;20034;-88
2022/02/17 07:36:07;;;;;;;5.80;1.00;;;;;;;10.53;70.51;95573.19;5399698;22;20051;-89
2022/02/17 07:39:27;;;;;;;7.28;1.98;;;;;;;10.54;70.78;95573.97;5408822;22;20037;-89
2022/02/17 08:02:03;;;;;;;10.52;2.03;;;;;;;10.55;68.80;95633.75;5098000;22;20042;-84
2022/02/17 08:07:38;;;;;;;5.85;1.30;;;;;;;10.54;67.22;95671.28;5184983;22;20088;-86
2022/02/17 08:10:10;;;;;;;6.13;1.23;;;;;;;10.56;67.09;95642.38;5054884;28;20045;-86
2022/02/17 08:12:48;;;;;;;6.85;1.50;;;;;;;10.58;66.99;95646.38;5053819;28;20076;-87
2022/02/17 08:15:45;;;;;;;10.47;2.67;;;;;;;10.60;65.51;95646.97;5036057;28;20053;-86
2022/02/17 08:18:18;;;;;;;;;;;;;;;10.64;64.25;95639.53;5036579;28;20121;-86
2022/02/17 08:20:55;;;;;;;5.90;1.83;;;;;;;10.66;64.97;95653.19;5037285;28;19922;-88
2022/02/17 08:26:27;;;;;;;6.10;1.88;;;;;;;10.76;63.57;95673.59;5096649;22;20062;-87
2022/02/17 08:29:02;;;;;;;7.55;1.73;;;;;;;10.77;63.10;95677.81;5038585;28;20077;-85
2022/02/17 08:31:30;;;;;;;7.45;2.00;;;;;;;10.77;63.32;95664.78;5036253;28;20082;-88
2022/02/17 08:34:03;;;;;;;6.38;1.58;;;;;;;10.78;63.47;95661.16;5039722;28;20037;-90
2022/02/17 08:36:39;;;;;;;4.55;1.13;;;;;;;10.77;62.77;95662.97;5038452;28;20089;-88
2022/02/17 08:39:11;;;;;;;16.08;2.65;;;;;;;10.78;62.77;95669.81;5033841;28;20041;-83
2022/02/17 08:41:40;;;;;;;9.55;2.15;;;;;;;10.80;62.87;95677.41;5036235;28;20084;-83
2022/02/17 08:44:17;;;;;;;6.68;2.08;;;;;;;10.81;63.15;95681.63;5091697;22;20137;-83
2022/02/17 08:46:48;;;;;;;9.88;1.40;;;;;;;10.82;61.21;95698.88;5008544;28;20520;-84
2022/02/17 08:49:21;;;;;;;5.88;1.38;;;;;;;10.81;60.60;95708.50;5005821;28;20050;-84
2022/02/17 08:51:59;;;;;;;6.22;1.90;;;;;;;10.82;60.47;95699.69;5005763;28;20064;-84
2022/02/17 08:54:39;;;;;;;8.52;1.70;;;;;;;10.83;60.60;95713.53;5005225;28;20070;-83
2022/02/17 08:57:15;;;;;;;9.35;2.00;;;;;;;10.82;61.34;95746.66;5004021;28;20058;-82
2022/02/17 08:59:43;;;;;;;5.05;1.33;;;;;;;10.80;60.50;95732.19;5005341;28;20077;-88
2022/02/17 09:02:11;;;;;;;8.05;1.85;;;;;;;10.78;61.26;95721.16;5009294;28;20137;-86
2022/02/17 09:04:54;;;;;;;9.90;2.35;;;;;;;10.77;61.63;95750.88;5006918;28;20050;-85
2022/02/17 09:07:43;;;;;;;6.65;1.73;;;;;;;10.72;60.85;95728.81;5019228;28;20042;-86
2022/02/17 09:10:25;;;;;;;10.13;2.07;;;;;;;10.71;60.33;95734.22;5017978;28;20054;-85
2022/02/17 09:13:11;;;;;;;13.93;2.40;;;;;;;10.74;60.75;95730.41;4956337;28;20386;-83
2022/02/17 09:15:47;;;;;;;11.52;2.13;;;;;;;10.85;61.62;95733.19;4953002;29;20075;-83
2022/02/17 09:18:16;;;;;;;8.63;2.33;;;;;;;11.05;61.64;95750.59;4946216;29;20076;-82
2022/02/17 09:20:52;;;;;;;6.20;2.55;;;;;;;11.32;59.90;95754.72;4947843;29;20473;-83
2022/02/17 09:23:43;;;;;;;4.38;1.85;;;;;;;11.65;59.18;95755.56;4957574;28;20072;-87
2022/02/17 09:31:37;;;;;;;8.30;1.75;;;;;;;12.07;55.12;95787.31;4998940;28;20051;-83
2022/02/17 09:34:12;;;;;;;10.23;2.00;;;;;;;12.13;54.41;95789.09;5007535;28;20050;-89
2022/02/17 09:37:15;;;;;;;9.10;1.60;;;;;;;12.22;52.40;95792.25;5005948;28;20059;-84
2022/02/17 09:39:47;;;;;;;14.38;4.78;;;;;;;12.23;52.21;95789.44;5004134;28;20072;-86
2022/02/17 09:42:15;;;;;;;11.73;3.28;;;;;;;12.14;51.53;95790.72;5000927;28;20054;-83
2022/02/17 09:44:44;;;;;;;14.02;2.95;;;;;;;12.03;51.63;95789.59;5000496;28;20042;-82
2022/02/17 09:47:27;;;;;;;;;;;;;;;;;;;;;
2022/02/17 09:50:19;;;;;;;11.23;2.75;;;;;;;11.82;52.44;95829.84;5002457;28;20432;-81
2022/02/17 09:53:30;;;;;;;13.85;3.28;;;;;;;11.76;51.81;95809.78;5002226;28;20054;-83
2022/02/17 09:56:07;;;;;;;10.60;3.10;;;;;;;11.74;50.55;95817.84;4994111;28;20047;-86
2022/02/17 10:02:12;;;;;;;12.90;3.25;;;;;;;11.70;50.35;95810.63;5016505;28;20056;-88
2022/02/17 10:04:58;;;;;;;15.98;4.00;;;;;;;11.64;50.53;95825.31;5037620;22;20126;-84
2022/02/17 10:07:53;;;;;;;9.55;2.70;;;;;;;11.60;49.31;95831.97;5011935;28;20034;-85
2022/02/17 10:14:04;;;;;;;11.93;3.20;;;;;;;11.44;48.54;95851.50;5010578;28;20058;-83
2022/02/17 10:16:51;;;;;;;9.73;2.42;;;;;;;11.33;48.70;95862.59;5012819;28;20057;-85
2022/02/17 10:20:14;;;;;;;20.90;7.07;;;;;;;11.26;49.37;95852.16;5017279;28;20030;-83
2022/02/17 10:23:22;;;;;;;13.57;4.18;;;;;;;11.21;49.93;95866.81;4958083;28;20050;-88
2022/02/17 10:30:14;;;;;;;11.57;3.65;;;;;;;11.07;51.38;95869.44;4899425;29;20412;-87
2022/02/17 10:36:47;;;;;;;10.13;3.58;;;;;;;10.91;52.58;95894.16;4996139;28;20167;-85
2022/02/17 10:39:44;;;;;;;14.55;3.38;;;;;;;10.84;51.72;95882.09;4994950;28;20538;-84
2022/02/17 10:42:15;;;;;;;13.02;3.30;;;;;;;10.83;51.67;95878.69;5004979;28;20085;-80
2022/02/17 10:44:50;;;;;;;25.67;8.45;;;;;;;10.81;51.48;95891.13;5009221;28;20054;-87
2022/02/17 10:47:24;;;;;;;13.38;4.75;;;;;;;10.82;52.15;95876.28;5002744;28;20114;-86
2022/02/17 10:49:54;;;;;;;16.88;3.17;;;;;;;10.83;52.41;95877.91;4996561;28;20046;-86
2022/02/17 10:52:31;;;;;;;13.38;3.33;;;;;;;10.80;51.81;95891.31;5017612;28;20042;-82
2022/02/17 10:55:14;;;;;;;13.07;3.60;;;;;;;10.77;51.13;95878.69;5017144;28;20057;-85
2022/02/17 10:57:43;;;;;;;11.70;2.97;;;;;;;10.76;51.99;95895.31;4997583;28;20102;-86
2022/02/17 11:00:16;;;;;;;17.80;4.40;;;;;;;10.74;51.68;95892.16;4997747;28;20027;-87
2022/02/17 11:02:46;;;;;;;17.85;3.92;;;;;;;10.68;51.39;95902.34;5002076;28;20068;-88
2022/02/17 11:05:15;;;;;;;12.50;3.65;;;;;;;10.64;52.21;95922.00;4997958;28;20046;-87
2022/02/17 11:07:51;;;;;;;15.43;4.43;;;;;;;10.61;52.48;95901.56;4998169;28;20059;-88
2022/02/17 11:10:34;;;;;;;18.58;5.55;;;;;;;10.61;53.83;95893.72;4998622;28;20031;-87
2022/02/17 11:13:05;;;;;;;15.55;3.40;;;;;;;10.88;51.94;95904.19;4995739;28;20049;-83
2022/02/17 11:15:39;;;;;;;10.30;3.28;;;;;;;11.37;50.78;95889.91;4998173;28;20051;-86
2022/02/17 11:18:10;;;;;;;14.68;3.20;;;;;;;11.67;51.24;95869.31;4995028;28;20050;-83
2022/02/17 11:20:40;;;;;;;13.48;2.80;;;;;;;11.93;49.89;95875.47;5007481;28;20102;-87
2022/02/17 11:23:14;;;;;;;13.30;3.83;;;;;;;11.81;49.40;95880.53;5013563;28;20046;-86
2022/02/17 11:25:52;;;;;;;14.43;2.90;;;;;;;11.63;49.71;95888.22;4999297;28;20106;-83
2022/02/17 11:28:32;;;;;;;8.18;2.03;;;;;;;11.49;50.34;95883.03;5010641;28;20113;-87
2022/02/17 11:31:03;;;;;;;13.00;3.15;;;;;;;11.41;51.80;95896.28;4996451;28;20085;-83
2022/02/17 11:33:41;;;;;;;16.52;5.13;;;;;;;11.32;52.66;95887.06;4999003;28;20050;-88
2022/02/17 11:36:32;;;;;;;17.63;5.13;;;;;;;11.16;54.35;95918.84;5000445;28;20046;-88
2022/02/17 11:39:07;;;;;;;30.83;11.98;;;;;;;11.00;55.75;95915.63;4992797;28;20059;-85
2022/02/17 11:41:39;;;;;;;16.75;5.45;;;;;;;10.87;55.93;95918.25;4994807;28;20055;-84
2022/02/17 11:44:20;;;;;;;13.73;4.20;;;;;;;10.82;57.06;95902.38;4995437;28;20061;-85
2022/02/17 11:46:56;;;;;;;14.23;3.85;;;;;;;10.76;56.00;95914.41;4991826;28;20421;-88
2022/02/17 11:49:50;;;;;;;12.85;3.05;;;;;;;10.70;56.40;95912.59;4990148;28;20500;-88
2022/02/17 11:52:20;;;;;;;11.38;1.95;;;;;;;10.66;56.63;95898.34;4989485;28;20493;-88
2022/02/17 11:55:23;;;;;;;6.68;2.42;;;;;;;10.63;57.35;95878.69;4992842;28;20046;-85
2022/02/17 11:57:56;;;;;;;7.45;2.22;;;;;;;10.60;56.21;95884.28;4972289;28;20043;-85
2022/02/17 12:00:36;;;;;;;6.00;2.20;;;;;;;10.62;56.41;95876.25;4985721;28;20051;-82
2022/02/17 12:03:09;;;;;;;12.85;2.78;;;;;;;10.62;57.07;95891.91;4986238;28;20047;-84
2022/02/17 12:05:39;;;;;;;14.73;3.25;;;;;;;10.62;56.34;95856.19;4985805;28;20081;-86
2022/02/17 12:08:24;;;;;;;11.10;2.83;;;;;;;10.62;56.30;95869.25;5004708;28;20050;-87
2022/02/17 12:10:55;;;;;;;11.07;2.60;;;;;;;10.66;55.82;95872.25;5005877;28;20050;-86
2022/02/17 12:13:28;;;;;;;9.15;2.13;;;;;;;10.69;55.63;95867.47;5008171;28;20042;-89
2022/02/17 12:16:04;;;;;;;11.75;2.67;;;;;;;10.72;55.14;95884.50;5008198;28;20122;-85
2022/02/17 12:18:42;;;;;;;6.38;1.70;;;;;;;10.70;51.49;95878.69;5006435;28;20058;-85
2022/02/17 12:21:22;;;;;;;9.40;2.42;;;;;;;10.69;51.23;95871.84;5006102;28;20042;-90
2022/02/17 12:23:51;;;;;;;10.45;2.13;;;;;;;10.71;50.67;95895.94;5005351;28;20050;-87
2022/02/17 12:26:39;;;;;;;6.45;2.25;;;;;;;10.74;50.01;95889.53;5005708;28;20046;-84
2022/02/17 12:29:21;;;;;;;10.27;2.95;;;;;;;10.78;50.36;95907.19;5005138;28;20054;-88
2022/02/17 12:31:52;;;;;;;8.73;2.38;;;;;;;10.81;50.35;95903.38;5006482;28;20062;-86
2022/02/17 12:34:21;;;;;;;8.82;2.58;;;;;;;10.83;49.31;95924.84;5007032;28;20054;-90
2022/02/17 12:36:52;;;;;;;9.43;3.28;;;;;;;10.84;47.90;95908.97;5010035;28;20074;-87
2022/02/17 12:39:25;;;;;;;6.00;1.63;;;;;;;10.89;48.49;95926.66;5011102;28;20050;-88
2022/02/17 12:41:57;;;;;;;12.13;2.67;;;;;;;10.95;48.40;95920.63;5008251;28;20042;-84
2022/02/17 12:44:27;;;;;;;9.53;2.30;;;;;;;11.00;48.06;95930.47;5009061;28;20054;-83
2022/02/17 12:46:55;;;;;;;13.43;4.25;;;;;;;10.99;48.00;95908.78;5007402;28;20094;-83
2022/02/17 12:49:24;;;;;;;9.70;2.40;;;;;;;10.97;48.53;95920.44;5006281;28;20046;-87
2022/02/17 12:51:54;;;;;;;7.03;1.95;;;;;;;10.96;47.57;95909.19;5006098;28;20054;-82
2022/02/17 12:54:32;;;;;;;7.43;2.42;;;;;;;10.98;49.24;95933.28;5005625;28;20073;-87
2022/02/17 12:57:06;;;;;;;11.55;2.20;;;;;;;10.99;48.66;95918.44;5006118;28;20073;-88
2022/02/17 12:59:38;;;;;;;8.57;1.25;;;;;;;10.98;47.05;95912.41;5007352;28;20077;-85
2022/02/17 13:02:07;;;;;;;8.52;1.42;;;;;;;10.99;47.53;95908.78;5006926;28;20062;-87
2022/02/17 13:04:47;;;;;;;7.30;1.67;;;;;;;10.99;46.97;95923.66;5006353;28;20050;-87
2022/02/17 13:07:17;;;;;;;8.82;2.53;;;;;;;10.99;46.43;95913.22;5011411;28;20050;-83
2022/02/17 13:09:53;;;;;;;6.13;1.70;;;;;;;10.99;48.91;95923.66;5012527;28;20054;-87
2022/02/17 13:12:22;;;;;;;12.88;2.70;;;;;;;10.98;47.27;95915.03;5007035;28;20054;-88
2022/02/17 13:14:56;;;;;;;14.32;2.70;;;;;;;10.97;48.59;95908.19;5007917;28;20142;-85
2022/02/17 13:17:26;;;;;;;9.77;2.17;;;;;;;10.96;49.35;95901.38;5007340;28;20110;-85
2022/02/17 13:19:55;;;;;;;10.27;2.03;;;;;;;11.00;47.91;95904.38;5007697;28;20150;-86
2022/02/17 13:22:42;;;;;;;10.77;2.67;;;;;;;11.03;48.21;95904.78;5006536;28;20054;-84